createdAt,value
2023-12-02T00:02:54.199Z,24.63
2023-12-02T00:05:21.147Z,20.67
2023-12-02T00:07:48.193Z,16.10
2023-12-02T00:10:15.048Z,19.30
2023-12-02T00:15:09.524Z,20.80
2023-12-02T00:17:36.570Z,22.77
2023-12-02T00:20:03.896Z,24.08
2023-12-02T00:22:30.888Z,18.58
2023-12-02T00:24:57.841Z,15.13
2023-12-02T00:27:24.682Z,31.20
2023-12-02T00:32:28.248Z,31.27
2023-12-02T00:34:57.655Z,22.33
2023-12-02T00:37:24.675Z,24.88
2023-12-02T00:39:51.602Z,22.50
2023-12-02T00:42:18.607Z,23.67
2023-12-02T00:44:45.482Z,31.75
2023-12-02T00:49:39.072Z,26.17
2023-12-02T00:52:06.143Z,29.10
2023-12-02T00:54:37.377Z,28.02
2023-12-02T00:57:04.604Z,22.00
2023-12-02T00:59:31.460Z,22.67
2023-12-02T01:04:25.123Z,30.30
2023-12-02T01:06:52.094Z,32.00
2023-12-02T01:09:19.083Z,26.67
2023-12-02T01:11:45.901Z,28.55
2023-12-02T01:14:12.711Z,31.10
2023-12-02T01:16:39.543Z,32.17
2023-12-02T01:21:33.123Z,30.05
2023-12-02T01:24:00.013Z,27.02
2023-12-02T01:28:53.694Z,32.58
2023-12-02T01:33:47.683Z,25.88
2023-12-02T01:36:15.452Z,31.42
2023-12-02T01:38:42.379Z,25.95
2023-12-02T01:43:38.959Z,26.75
2023-12-02T01:46:06.691Z,23.98
2023-12-02T01:48:37.187Z,28.92
2023-12-02T01:51:05.849Z,30.58
2023-12-02T01:53:32.973Z,27.27
2023-12-02T01:55:59.951Z,24.90
2023-12-02T01:58:27.201Z,17.98
2023-12-02T02:00:54.118Z,35.67
2023-12-02T02:05:48.425Z,24.77
2023-12-02T02:08:15.270Z,24.88
2023-12-02T02:13:08.874Z,34.08
2023-12-02T02:18:02.992Z,21.02
2023-12-02T02:20:29.867Z,27.58
2023-12-02T02:25:23.354Z,26.50
2023-12-02T02:30:17.038Z,20.67
2023-12-02T02:32:43.983Z,24.83
2023-12-02T02:35:10.822Z,24.15
2023-12-02T02:40:06.832Z,27.30
2023-12-02T02:42:33.752Z,26.65
2023-12-02T02:45:00.724Z,19.52
2023-12-02T02:47:28.393Z,20.58
2023-12-02T02:49:55.298Z,25.95
2023-12-02T02:54:49.841Z,31.67
2023-12-02T03:02:15.662Z,28.40
2023-12-02T03:07:09.310Z,26.27
2023-12-02T03:12:04.152Z,24.48
2023-12-02T03:14:31.036Z,25.70
2023-12-02T03:19:25.058Z,15.73
2023-12-02T03:21:51.959Z,27.55
2023-12-02T03:26:45.596Z,24.88
2023-12-02T03:31:39.788Z,25.73
2023-12-02T03:34:06.614Z,24.23
2023-12-02T03:39:00.677Z,26.02
2023-12-02T03:41:27.516Z,28.42
2023-12-02T03:43:58.684Z,20.13
2023-12-02T03:46:30.065Z,25.95
2023-12-02T03:48:57.682Z,28.23
2023-12-02T03:51:25.220Z,26.08
2023-12-02T03:53:52.247Z,24.13
2023-12-02T03:56:20.069Z,26.92
2023-12-02T03:58:47.230Z,29.75
2023-12-02T04:01:18.894Z,27.35
2023-12-02T04:03:47.075Z,33.60
2023-12-02T04:06:14.825Z,25.45
2023-12-02T04:08:42.199Z,22.80
2023-12-02T04:11:12.231Z,17.98
2023-12-02T04:13:39.056Z,20.60
2023-12-02T04:18:34.686Z,31.27
2023-12-02T04:21:01.703Z,28.33
2023-12-02T04:23:29.401Z,26.95
2023-12-02T04:25:56.625Z,37.58
2023-12-02T04:28:23.407Z,23.58
2023-12-02T04:30:50.220Z,31.90
2023-12-02T04:35:44.239Z,17.83
2023-12-02T04:38:11.106Z,35.60
2023-12-02T04:40:37.915Z,16.92
2023-12-02T04:45:32.448Z,24.52
2023-12-02T04:48:00.145Z,31.58
2023-12-02T04:50:27.307Z,21.92
2023-12-02T04:52:54.920Z,30.23
2023-12-02T04:55:21.807Z,36.45
2023-12-02T05:00:16.404Z,31.17
2023-12-02T05:02:44.075Z,25.00
2023-12-02T05:05:11.402Z,23.58
2023-12-02T05:07:38.730Z,27.98
2023-12-02T05:10:06.143Z,24.63
2023-12-02T05:12:33.629Z,30.30
2023-12-02T05:15:00.670Z,27.85
2023-12-02T05:17:28.695Z,24.50
2023-12-02T05:19:55.803Z,21.45
2023-12-02T05:22:22.739Z,31.40
2023-12-02T05:24:49.949Z,24.98
2023-12-02T05:27:16.858Z,27.48
2023-12-02T05:29:43.787Z,24.30
2023-12-02T05:32:10.656Z,23.27
2023-12-02T05:37:04.485Z,29.73
2023-12-02T05:39:31.343Z,25.08
2023-12-02T05:41:58.939Z,25.25
2023-12-02T05:44:25.788Z,21.85
2023-12-02T05:49:19.484Z,24.65
2023-12-02T05:54:13.293Z,20.00
2023-12-02T05:56:40.141Z,23.08
2023-12-02T06:01:33.761Z,16.30
2023-12-02T06:06:28.443Z,31.98
2023-12-02T06:08:55.307Z,20.08
2023-12-02T06:13:48.810Z,26.20
2023-12-02T06:16:15.833Z,22.77
2023-12-02T06:18:42.774Z,18.35
2023-12-02T06:21:13.196Z,15.95
2023-12-02T06:23:40.514Z,18.60
2023-12-02T06:26:07.863Z,20.33
2023-12-02T06:28:34.676Z,19.13
2023-12-02T06:33:28.270Z,15.52
2023-12-02T06:38:23.198Z,15.98
2023-12-02T06:40:50.295Z,16.90
2023-12-02T06:43:17.524Z,15.98
2023-12-02T06:45:44.461Z,17.95
2023-12-02T06:48:11.548Z,14.43
2023-12-02T06:50:38.499Z,19.50
2023-12-02T06:55:35.133Z,19.20
2023-12-02T06:58:01.969Z,16.30
2023-12-02T07:02:55.627Z,14.38
2023-12-02T07:07:49.151Z,12.75
2023-12-02T07:12:42.896Z,15.10
2023-12-02T07:15:10.248Z,16.65
2023-12-02T07:17:37.215Z,17.77
2023-12-02T07:20:04.626Z,12.63
2023-12-02T07:22:31.450Z,14.30
2023-12-02T07:27:28.999Z,13.93
2023-12-02T07:32:26.703Z,13.23
2023-12-02T07:34:53.698Z,14.15
2023-12-02T07:37:20.587Z,13.90
2023-12-02T07:42:14.452Z,11.35
2023-12-02T07:44:41.331Z,13.05
2023-12-02T07:49:34.975Z,14.55
2023-12-02T07:54:28.589Z,12.93
2023-12-02T07:59:22.393Z,12.10
2023-12-02T08:01:49.379Z,14.27
2023-12-02T08:04:16.468Z,14.05
2023-12-02T08:06:43.342Z,11.48
2023-12-02T08:11:36.993Z,15.70
2023-12-02T08:14:03.997Z,11.18
2023-12-02T08:16:30.851Z,15.43
2023-12-02T08:21:24.450Z,14.82
2023-12-02T08:26:18.092Z,12.68
2023-12-02T08:28:47.464Z,11.38
2023-12-02T08:31:14.543Z,12.80
2023-12-02T08:33:41.677Z,12.98
2023-12-02T08:36:09.235Z,10.23
2023-12-02T08:38:37.341Z,8.30
2023-12-02T08:41:04.757Z,14.07
2023-12-02T08:43:32.367Z,11.57
2023-12-02T08:45:59.249Z,10.93
2023-12-02T08:50:53.168Z,17.13
2023-12-02T08:53:20.114Z,12.02
2023-12-02T08:55:46.997Z,11.98
2023-12-02T08:58:13.816Z,15.77
2023-12-02T09:03:07.582Z,11.98
2023-12-02T09:05:34.547Z,12.43
2023-12-02T09:08:02.756Z,18.77
2023-12-02T09:10:30.096Z,13.48
2023-12-02T09:12:57.075Z,12.82
2023-12-02T09:15:24.010Z,10.98
2023-12-02T09:18:06.105Z,11.55
2023-12-02T09:20:50.428Z,13.27
2023-12-02T09:23:18.908Z,15.82
2023-12-02T09:25:48.089Z,11.70
2023-12-02T09:28:20.040Z,15.93
2023-12-02T09:31:07.328Z,12.60
2023-12-02T09:33:37.739Z,13.48
2023-12-02T09:36:05.964Z,12.40
2023-12-02T09:38:34.492Z,11.57
2023-12-02T09:41:32.660Z,13.32
2023-12-02T09:44:21.755Z,15.15
2023-12-02T09:46:54.498Z,16.38
2023-12-02T09:50:06.094Z,17.15
2023-12-02T09:52:55.398Z,12.00
2023-12-02T09:55:45.614Z,12.13
2023-12-02T09:58:23.915Z,14.60
2023-12-02T10:01:01.208Z,15.77
2023-12-02T10:03:54.637Z,15.32
2023-12-02T10:06:24.434Z,13.90
2023-12-02T10:09:04.078Z,13.95
2023-12-02T10:12:05.793Z,12.38
2023-12-02T10:14:35.004Z,16.60
2023-12-02T10:17:04.096Z,11.60
2023-12-02T10:19:40.278Z,10.50
2023-12-02T10:22:09.369Z,11.95
2023-12-02T10:25:00.789Z,10.75
2023-12-02T10:27:30.951Z,12.15
2023-12-02T10:30:12.013Z,11.82
2023-12-02T10:32:50.731Z,11.23
2023-12-02T10:35:43.623Z,8.27
2023-12-02T10:38:27.681Z,7.22
2023-12-02T10:41:44.028Z,8.93
2023-12-02T10:44:11.829Z,8.15
2023-12-02T10:46:43.131Z,8.95
2023-12-02T10:49:13.881Z,8.73
2023-12-02T10:51:42.648Z,6.45
2023-12-02T10:54:13.122Z,7.93
2023-12-02T10:56:41.016Z,5.45
2023-12-02T11:01:56.893Z,16.58
2023-12-02T11:04:36.062Z,7.38
2023-12-02T11:07:07.000Z,7.05
2023-12-02T11:09:56.635Z,9.88
2023-12-02T11:12:26.823Z,4.97
2023-12-02T11:14:58.675Z,9.52
2023-12-02T11:17:37.979Z,8.77
2023-12-02T11:20:23.334Z,12.13
2023-12-02T11:23:14.294Z,12.98
2023-12-02T11:26:18.715Z,12.40
2023-12-02T11:29:22.970Z,12.32
2023-12-02T11:32:10.954Z,16.58
2023-12-02T11:34:56.531Z,15.27
2023-12-02T11:37:32.469Z,13.45
2023-12-02T11:40:36.641Z,16.90
2023-12-02T11:43:25.661Z,19.40
2023-12-02T11:45:58.572Z,18.92
2023-12-02T11:48:45.008Z,21.77
2023-12-02T11:51:52.600Z,17.90
2023-12-02T11:54:39.113Z,17.10
2023-12-02T11:57:47.368Z,12.88
2023-12-02T12:00:40.347Z,11.30
2023-12-02T12:03:41.328Z,8.00
2023-12-02T12:06:30.423Z,10.63
2023-12-02T12:09:28.603Z,7.60
2023-12-02T12:11:57.781Z,8.30
2023-12-02T12:14:28.815Z,8.10
2023-12-02T12:16:55.735Z,7.28
2023-12-02T12:21:49.835Z,10.95
2023-12-02T12:24:16.733Z,6.53
2023-12-02T12:29:10.758Z,7.22
2023-12-02T12:31:38.034Z,7.70
2023-12-02T12:34:14.620Z,8.57
2023-12-02T12:36:42.661Z,6.90
2023-12-02T12:39:11.251Z,7.05
2023-12-02T12:41:39.755Z,8.57
2023-12-02T12:44:07.388Z,7.25
2023-12-02T12:46:35.296Z,8.25
2023-12-02T12:49:06.678Z,8.65
2023-12-02T12:51:34.457Z,8.45
2023-12-02T12:54:03.914Z,7.75
2023-12-02T12:56:56.472Z,8.27
2023-12-02T12:59:26.713Z,9.35
2023-12-02T13:02:20.256Z,8.77
2023-12-02T13:05:10.614Z,10.27
2023-12-02T13:07:58.972Z,9.23
2023-12-02T13:10:27.990Z,9.57
2023-12-02T13:12:59.328Z,10.50
2023-12-02T13:15:26.451Z,11.30
2023-12-02T13:17:53.396Z,10.35
2023-12-02T13:20:21.716Z,11.13
2023-12-02T13:22:49.757Z,10.95
2023-12-02T13:25:33.259Z,12.00
2023-12-02T13:28:23.341Z,13.23
2023-12-02T13:30:52.214Z,11.43
2023-12-02T13:33:50.139Z,10.68
2023-12-02T13:36:23.919Z,9.43
2023-12-02T13:39:07.126Z,10.00
2023-12-02T13:41:53.620Z,10.50
2023-12-02T13:44:24.296Z,8.88
2023-12-02T13:46:51.196Z,7.93
2023-12-02T13:49:30.630Z,10.07
2023-12-02T13:52:32.469Z,8.65
2023-12-02T13:55:15.270Z,9.10
2023-12-02T13:57:55.360Z,8.07
2023-12-02T14:00:27.263Z,7.57
2023-12-02T14:03:06.380Z,9.77
2023-12-02T14:05:45.218Z,8.90
2023-12-02T14:08:17.144Z,8.18
2023-12-02T14:10:46.808Z,8.68
2023-12-02T14:13:42.666Z,9.10
2023-12-02T14:16:52.998Z,9.57
2023-12-02T14:19:52.542Z,8.82
2023-12-02T14:22:51.528Z,9.25
2023-12-02T14:26:01.168Z,9.82
2023-12-02T14:28:46.441Z,11.40
2023-12-02T14:31:39.691Z,10.02
2023-12-02T14:34:27.967Z,10.55
2023-12-02T14:37:12.644Z,10.20
2023-12-02T14:40:04.098Z,8.75
2023-12-02T14:42:52.745Z,9.68
2023-12-02T14:45:19.648Z,8.20
2023-12-02T14:50:19.207Z,8.25
2023-12-02T14:52:46.236Z,10.27
2023-12-02T14:55:13.223Z,10.55
2023-12-02T14:57:40.118Z,11.05
2023-12-02T15:02:41.858Z,8.60
2023-12-02T15:05:12.337Z,11.07
2023-12-02T15:07:47.801Z,9.52
2023-12-02T15:10:28.823Z,8.80
2023-12-02T15:13:01.878Z,8.90
2023-12-02T15:15:35.218Z,9.98
2023-12-02T15:18:07.221Z,9.95
2023-12-02T15:20:35.387Z,11.98
2023-12-02T15:23:17.593Z,6.35
2023-12-02T15:25:48.715Z,7.90
2023-12-02T15:28:43.600Z,7.43
2023-12-02T15:31:13.421Z,7.13
2023-12-02T15:33:43.074Z,7.07
2023-12-02T15:36:12.127Z,7.32
2023-12-02T15:38:39.091Z,6.82
2023-12-02T15:41:07.192Z,6.13
2023-12-02T15:43:34.383Z,5.45
2023-12-02T15:46:01.385Z,5.00
2023-12-02T15:50:55.416Z,5.50
2023-12-02T15:55:51.354Z,4.88
2023-12-02T15:58:24.692Z,4.85
2023-12-02T16:03:18.268Z,3.22
2023-12-02T16:05:48.573Z,4.07
2023-12-02T16:08:18.991Z,3.83
2023-12-02T16:10:59.646Z,6.72
2023-12-02T16:13:29.584Z,3.75
2023-12-02T16:15:56.576Z,4.30
2023-12-02T16:20:50.238Z,4.50
2023-12-02T16:23:17.190Z,4.65
2023-12-02T16:25:44.193Z,4.07
2023-12-02T16:30:39.672Z,3.50
2023-12-02T16:33:07.070Z,3.63
2023-12-02T16:35:35.992Z,6.35
2023-12-02T16:38:02.956Z,3.53
2023-12-02T16:42:56.617Z,3.00
2023-12-02T16:45:24.548Z,2.97
2023-12-02T16:47:56.428Z,2.78
2023-12-02T16:50:23.324Z,2.80
2023-12-02T16:52:54.785Z,3.13
2023-12-02T16:55:34.043Z,3.13
2023-12-02T16:58:04.278Z,2.88
2023-12-02T17:00:37.339Z,3.58
2023-12-02T17:03:06.436Z,3.03
2023-12-02T17:05:33.340Z,2.72
2023-12-02T17:08:04.839Z,2.67
2023-12-02T17:10:44.163Z,3.85
2023-12-02T17:13:44.625Z,2.53
2023-12-02T17:16:33.815Z,2.25
2023-12-02T17:19:10.407Z,2.47
2023-12-02T17:21:37.689Z,2.45
2023-12-02T17:24:28.745Z,2.00
2023-12-02T17:26:56.086Z,2.55
2023-12-02T17:29:27.997Z,1.77
2023-12-02T17:31:56.454Z,3.33
2023-12-02T17:34:24.185Z,2.47
2023-12-02T17:36:51.840Z,2.25
2023-12-02T17:39:19.922Z,2.25
2023-12-02T17:41:50.240Z,2.17
2023-12-02T17:44:17.950Z,4.35
2023-12-02T17:46:46.182Z,2.40
2023-12-02T17:49:14.204Z,2.28
2023-12-02T17:51:42.475Z,2.28
2023-12-02T17:54:09.718Z,2.45
2023-12-02T17:56:37.409Z,2.53
2023-12-02T17:59:04.511Z,3.50
2023-12-02T18:01:31.553Z,2.65
2023-12-02T18:03:58.435Z,3.08
2023-12-02T18:06:26.792Z,2.83
2023-12-02T18:08:54.316Z,3.25
2023-12-02T18:11:21.192Z,2.17
2023-12-02T18:13:48.210Z,3.35
2023-12-02T18:18:42.198Z,2.63
2023-12-02T18:23:35.937Z,2.60
2023-12-02T18:26:02.785Z,2.88
2023-12-02T18:28:29.666Z,2.95
2023-12-02T18:30:56.471Z,3.90
2023-12-02T18:33:23.508Z,2.70
2023-12-02T18:38:17.465Z,2.30
2023-12-02T18:43:11.169Z,3.85
2023-12-02T18:45:37.981Z,4.45
2023-12-02T18:48:05.475Z,4.43
2023-12-02T18:50:32.421Z,3.65
2023-12-02T18:52:59.701Z,3.75
2023-12-02T18:55:26.562Z,7.13
2023-12-02T18:57:53.413Z,5.38
2023-12-02T19:00:20.451Z,5.78
2023-12-02T19:02:47.347Z,5.65
2023-12-02T19:07:41.300Z,3.45
2023-12-02T19:12:35.181Z,2.67
2023-12-02T19:17:28.975Z,2.45
2023-12-02T19:22:25.638Z,3.55
2023-12-02T19:24:53.291Z,5.68
2023-12-02T19:27:20.447Z,9.10
2023-12-02T19:29:47.434Z,7.18
2023-12-02T19:32:14.542Z,4.63
2023-12-02T19:34:42.489Z,5.85
2023-12-02T19:37:09.475Z,5.05
2023-12-02T19:42:08.757Z,5.90
2023-12-02T19:44:36.055Z,6.88
2023-12-02T19:47:05.781Z,5.15
2023-12-02T19:49:34.591Z,6.20
2023-12-02T19:52:03.395Z,7.25
2023-12-02T19:54:30.925Z,6.25
2023-12-02T19:56:57.999Z,9.20
2023-12-02T19:59:25.365Z,9.60
2023-12-02T20:01:54.183Z,11.73
2023-12-02T20:04:22.216Z,11.73
2023-12-02T20:06:49.446Z,10.85
2023-12-02T20:09:17.312Z,11.00
2023-12-02T20:11:46.186Z,10.15
2023-12-02T20:14:14.633Z,11.10
2023-12-02T20:16:42.032Z,10.00
2023-12-02T20:19:09.145Z,10.32
2023-12-02T20:21:36.934Z,12.70
2023-12-02T20:24:05.403Z,14.50
2023-12-02T20:26:32.996Z,15.48
2023-12-02T20:29:00.638Z,17.70
2023-12-02T20:31:27.559Z,14.82
2023-12-02T20:33:54.493Z,14.35
2023-12-02T20:36:21.629Z,13.10
2023-12-02T20:38:48.517Z,12.73
2023-12-02T20:41:15.379Z,11.93
2023-12-02T20:43:42.441Z,13.60
2023-12-02T20:48:37.140Z,22.70
2023-12-02T20:51:05.442Z,11.93
2023-12-02T20:53:32.438Z,13.85
2023-12-02T20:55:59.285Z,12.38
2023-12-02T20:58:26.149Z,12.70
2023-12-02T21:00:53.693Z,14.50
2023-12-02T21:03:20.861Z,12.20
2023-12-02T21:08:14.845Z,12.60
2023-12-02T21:10:41.932Z,15.52
2023-12-02T21:15:42.911Z,13.20
2023-12-02T21:18:14.770Z,11.50
2023-12-02T21:20:41.740Z,11.18
2023-12-02T21:23:09.513Z,13.07
2023-12-02T21:25:36.737Z,12.65
2023-12-02T21:30:39.326Z,17.38
2023-12-02T21:33:16.660Z,14.55
2023-12-02T21:35:58.429Z,12.77
2023-12-02T21:38:34.212Z,13.70
2023-12-02T21:41:04.959Z,12.93
2023-12-02T21:43:31.867Z,15.70
2023-12-02T21:45:58.915Z,17.00
2023-12-02T21:50:58.966Z,14.50
2023-12-02T21:53:26.957Z,13.68
2023-12-02T21:55:57.403Z,36.33
2023-12-02T21:58:28.007Z,14.80
2023-12-02T22:01:04.717Z,13.90
2023-12-02T22:03:39.124Z,13.63
2023-12-02T22:06:21.395Z,14.45
2023-12-02T22:08:48.256Z,12.90
2023-12-02T22:11:15.079Z,14.13
2023-12-02T22:13:42.512Z,16.20
2023-12-02T22:16:09.631Z,12.55
2023-12-02T22:21:09.616Z,12.80
2023-12-02T22:23:36.672Z,16.85
2023-12-02T22:26:04.159Z,11.40
2023-12-02T22:28:30.983Z,14.63
2023-12-02T22:30:57.793Z,11.18
2023-12-02T22:33:27.089Z,11.80
2023-12-02T22:36:06.248Z,9.15
2023-12-02T22:38:40.299Z,9.52
2023-12-02T22:41:10.904Z,11.90
2023-12-02T22:43:43.119Z,11.13
2023-12-02T22:46:15.040Z,13.05
2023-12-02T22:48:45.624Z,10.32
2023-12-02T22:51:18.953Z,9.95
2023-12-02T22:53:46.426Z,10.57
2023-12-02T22:56:13.804Z,10.93
2023-12-02T22:58:44.861Z,9.25
2023-12-02T23:01:21.249Z,8.55
2023-12-02T23:03:48.428Z,10.98
2023-12-02T23:06:15.944Z,10.73
2023-12-02T23:08:42.868Z,10.40
2023-12-02T23:11:28.446Z,8.52
2023-12-02T23:13:56.327Z,9.30
2023-12-02T23:16:25.911Z,8.65
2023-12-02T23:18:52.748Z,11.40
2023-12-02T23:21:19.791Z,8.30
2023-12-02T23:23:46.660Z,9.18
2023-12-02T23:26:15.209Z,7.75
2023-12-02T23:28:42.091Z,10.00
2023-12-02T23:31:09.004Z,9.38
2023-12-02T23:33:35.958Z,8.10
2023-12-02T23:36:04.471Z,8.68
2023-12-02T23:38:32.334Z,10.45
2023-12-02T23:40:59.336Z,9.45
2023-12-02T23:43:36.790Z,8.05
2023-12-02T23:46:04.577Z,9.02
2023-12-02T23:48:31.632Z,7.30
2023-12-02T23:53:25.356Z,8.88
2023-12-02T23:55:53.169Z,7.85
2023-12-02T23:58:20.032Z,6.88
